This is the latest recevied weather packets stored in our database for station/object KJ7HSW. If no packets are shown the sender has not sent any weather packets the latest 10 day(s).
| Time | Temp. | Humidity | Pressure | Rain* | Wind** | Luminosity | Snow |
|---|---|---|---|---|---|---|---|
| 1777687116 | 22.22° C | 51% | 1014.1 hPa | 0 mm | - | 61 W/m² | - |
| 1777686813 | 22.22° C | 50% | 1014 hPa | 0 mm | - | 54 W/m² | - |
| 1777686510 | 22.78° C | 49% | 1014 hPa | 0 mm | - | 54 W/m² | - |
| 1777686207 | 22.78° C | 49% | 1013.9 hPa | 0 mm | - | 54 W/m² | - |
| 1777685903 | 23.33° C | 46% | 1014.1 hPa | 0 mm | - | 58 W/m² | - |
| 1777685599 | 23.89° C | 45% | 1014.1 hPa | 0 mm | - | 59 W/m² | - |
| 1777685295 | 23.89° C | 41% | 1014 hPa | 0 mm | - | 66 W/m² | - |
| 1777684994 | 24.44° C | 40% | 1014.1 hPa | 0 mm | - | 84 W/m² | - |
| 1777684690 | 24.44° C | 41% | 1013.8 hPa | 0 mm | - | 115 W/m² | - |
| 1777684387 | 24.44° C | 39% | 1014 hPa | 0 mm | - | 131 W/m² | - |
| 1777684084 | 24.44° C | 40% | 1014.1 hPa | 0 mm | - | 155 W/m² | - |
| 1777683780 | 23.89° C | 41% | 1014 hPa | 0 mm | - | 182 W/m² | - |
| 1777683477 | 24.44° C | 41% | 1014.2 hPa | 0 mm | - | 180 W/m² | - |
| 1777683175 | 24.44° C | 37% | 1014.1 hPa | 0 mm | - | 148 W/m² | - |
| 1777682871 | 24.44° C | 37% | 1014 hPa | 0 mm | - | 134 W/m² | - |
| 1777682568 | 25° C | 36% | 1014.1 hPa | 0 mm | - | 156 W/m² | - |
| 1777682266 | 25° C | 36% | 1014.1 hPa | 0 mm | - | 151 W/m² | - |
| 1777681963 | 25° C | 37% | 1014.2 hPa | 0 mm | - | 173 W/m² | - |
| 1777681658 | 24.44° C | 40% | 1014.1 hPa | 0 mm | - | 190 W/m² | - |
| 1777681356 | 25° C | 36% | 1014.3 hPa | 0 mm | - | 185 W/m² | - |
| 1777681053 | 25° C | 39% | 1014.1 hPa | 0 mm | - | 213 W/m² | - |
| 1777680752 | 25° C | 38% | 1014.1 hPa | 0 mm | - | 162 W/m² | - |
| 1777680449 | 25° C | 41% | 1014.1 hPa | 0 mm | - | 175 W/m² | - |
| 1777680147 | 25° C | 39% | 1014.2 hPa | 0 mm | - | 115 W/m² | - |
| 1777679842 | 25.56° C | 38% | 1014.2 hPa | 0 mm | - | 171 W/m² | - |
* Rain latest hour (hover to see other rain measurements)
** Current wind speed in m/s (hover to see current wind gust speed)